sensor_id;sensor_type;location;lat;lon;timestamp;P1;durP1;ratioP1;P2;durP2;ratioP2
27746;SDS011;15138;51.012;4.692;2024-01-30T00:01:19;16.65;;;6.93;;
27746;SDS011;15138;51.012;4.692;2024-01-30T00:03:48;14.18;;;6.57;;
27746;SDS011;15138;51.012;4.692;2024-01-30T00:06:18;12.88;;;6.03;;
27746;SDS011;15138;51.012;4.692;2024-01-30T00:08:47;14.07;;;6.38;;
27746;SDS011;15138;51.012;4.692;2024-01-30T00:11:17;13.98;;;5.88;;
27746;SDS011;15138;51.012;4.692;2024-01-30T00:13:46;17.75;;;6.20;;
27746;SDS011;15138;51.012;4.692;2024-01-30T00:16:19;15.90;;;5.32;;
27746;SDS011;15138;51.012;4.692;2024-01-30T00:18:48;13.45;;;5.60;;
27746;SDS011;15138;51.012;4.692;2024-01-30T00:21:17;14.80;;;5.85;;
27746;SDS011;15138;51.012;4.692;2024-01-30T00:23:45;15.30;;;5.68;;
27746;SDS011;15138;51.012;4.692;2024-01-30T00:26:14;13.43;;;5.90;;
27746;SDS011;15138;51.012;4.692;2024-01-30T00:28:44;12.55;;;5.60;;
27746;SDS011;15138;51.012;4.692;2024-01-30T00:31:12;14.02;;;6.32;;
27746;SDS011;15138;51.012;4.692;2024-01-30T00:33:41;14.18;;;6.47;;
27746;SDS011;15138;51.012;4.692;2024-01-30T00:36:09;12.40;;;5.97;;
27746;SDS011;15138;51.012;4.692;2024-01-30T00:38:38;15.95;;;5.53;;
27746;SDS011;15138;51.012;4.692;2024-01-30T00:41:07;12.10;;;5.53;;
27746;SDS011;15138;51.012;4.692;2024-01-30T00:43:36;8.68;;;5.03;;
27746;SDS011;15138;51.012;4.692;2024-01-30T00:46:06;13.18;;;5.55;;
27746;SDS011;15138;51.012;4.692;2024-01-30T00:48:34;15.07;;;6.15;;
27746;SDS011;15138;51.012;4.692;2024-01-30T00:51:02;12.93;;;5.65;;
27746;SDS011;15138;51.012;4.692;2024-01-30T00:53:31;13.70;;;5.90;;
27746;SDS011;15138;51.012;4.692;2024-01-30T00:55:59;12.68;;;5.40;;
27746;SDS011;15138;51.012;4.692;2024-01-30T00:58:27;13.82;;;5.80;;
27746;SDS011;15138;51.012;4.692;2024-01-30T01:00:56;12.07;;;4.80;;
27746;SDS011;15138;51.012;4.692;2024-01-30T01:03:25;13.50;;;5.15;;
27746;SDS011;15138;51.012;4.692;2024-01-30T01:05:54;10.60;;;4.75;;
27746;SDS011;15138;51.012;4.692;2024-01-30T01:08:22;16.27;;;5.45;;
27746;SDS011;15138;51.012;4.692;2024-01-30T01:10:51;7.75;;;5.05;;
27746;SDS011;15138;51.012;4.692;2024-01-30T01:13:20;13.30;;;5.63;;
27746;SDS011;15138;51.012;4.692;2024-01-30T01:15:48;16.33;;;5.15;;
27746;SDS011;15138;51.012;4.692;2024-01-30T01:18:16;13.88;;;5.43;;
27746;SDS011;15138;51.012;4.692;2024-01-30T01:20:46;10.40;;;5.43;;
27746;SDS011;15138;51.012;4.692;2024-01-30T01:23:15;10.18;;;4.78;;
27746;SDS011;15138;51.012;4.692;2024-01-30T01:25:43;9.23;;;5.28;;
27746;SDS011;15138;51.012;4.692;2024-01-30T01:28:11;12.32;;;5.22;;
27746;SDS011;15138;51.012;4.692;2024-01-30T01:30:40;12.80;;;5.28;;
27746;SDS011;15138;51.012;4.692;2024-01-30T01:33:08;8.43;;;4.75;;
27746;SDS011;15138;51.012;4.692;2024-01-30T01:35:36;15.77;;;5.35;;
27746;SDS011;15138;51.012;4.692;2024-01-30T01:38:07;11.60;;;5.00;;
27746;SDS011;15138;51.012;4.692;2024-01-30T01:40:35;12.45;;;5.15;;
27746;SDS011;15138;51.012;4.692;2024-01-30T01:43:06;10.50;;;5.00;;
27746;SDS011;15138;51.012;4.692;2024-01-30T01:45:34;9.00;;;4.43;;
27746;SDS011;15138;51.012;4.692;2024-01-30T01:48:03;10.80;;;5.32;;
27746;SDS011;15138;51.012;4.692;2024-01-30T01:50:31;8.65;;;4.38;;
27746;SDS011;15138;51.012;4.692;2024-01-30T01:53:00;8.32;;;4.65;;
27746;SDS011;15138;51.012;4.692;2024-01-30T01:55:32;9.95;;;5.13;;
27746;SDS011;15138;51.012;4.692;2024-01-30T01:58:00;9.20;;;5.15;;
27746;SDS011;15138;51.012;4.692;2024-01-30T02:00:29;16.83;;;5.47;;
27746;SDS011;15138;51.012;4.692;2024-01-30T02:02:57;9.52;;;4.68;;
27746;SDS011;15138;51.012;4.692;2024-01-30T02:05:27;8.18;;;4.50;;
27746;SDS011;15138;51.012;4.692;2024-01-30T02:07:55;9.30;;;4.63;;
27746;SDS011;15138;51.012;4.692;2024-01-30T02:10:24;10.05;;;5.20;;
27746;SDS011;15138;51.012;4.692;2024-01-30T02:12:54;8.80;;;4.05;;
27746;SDS011;15138;51.012;4.692;2024-01-30T02:15:22;10.43;;;4.70;;
27746;SDS011;15138;51.012;4.692;2024-01-30T02:17:50;11.35;;;5.10;;
27746;SDS011;15138;51.012;4.692;2024-01-30T02:20:18;8.18;;;4.72;;
27746;SDS011;15138;51.012;4.692;2024-01-30T02:22:48;11.75;;;5.90;;
27746;SDS011;15138;51.012;4.692;2024-01-30T02:25:16;12.05;;;5.25;;
27746;SDS011;15138;51.012;4.692;2024-01-30T02:27:45;9.63;;;4.47;;
27746;SDS011;15138;51.012;4.692;2024-01-30T02:30:13;8.63;;;4.85;;
27746;SDS011;15138;51.012;4.692;2024-01-30T02:32:41;8.00;;;4.47;;
27746;SDS011;15138;51.012;4.692;2024-01-30T02:35:09;9.52;;;4.75;;
27746;SDS011;15138;51.012;4.692;2024-01-30T02:37:37;11.32;;;5.13;;
27746;SDS011;15138;51.012;4.692;2024-01-30T02:40:07;10.05;;;4.72;;
27746;SDS011;15138;51.012;4.692;2024-01-30T02:42:36;11.48;;;4.95;;
27746;SDS011;15138;51.012;4.692;2024-01-30T02:45:04;9.00;;;4.80;;
27746;SDS011;15138;51.012;4.692;2024-01-30T02:47:33;9.93;;;5.38;;
27746;SDS011;15138;51.012;4.692;2024-01-30T02:50:01;9.68;;;4.65;;
27746;SDS011;15138;51.012;4.692;2024-01-30T02:52:30;9.95;;;4.82;;
27746;SDS011;15138;51.012;4.692;2024-01-30T02:54:58;8.20;;;5.10;;
27746;SDS011;15138;51.012;4.692;2024-01-30T02:57:28;9.88;;;4.47;;
27746;SDS011;15138;51.012;4.692;2024-01-30T02:59:56;8.75;;;4.93;;
27746;SDS011;15138;51.012;4.692;2024-01-30T03:02:24;7.88;;;4.68;;
27746;SDS011;15138;51.012;4.692;2024-01-30T03:04:52;8.48;;;4.72;;
27746;SDS011;15138;51.012;4.692;2024-01-30T03:07:21;11.05;;;4.50;;
27746;SDS011;15138;51.012;4.692;2024-01-30T03:09:49;10.77;;;4.75;;
27746;SDS011;15138;51.012;4.692;2024-01-30T03:12:17;7.30;;;4.75;;
27746;SDS011;15138;51.012;4.692;2024-01-30T03:14:47;8.52;;;4.28;;
27746;SDS011;15138;51.012;4.692;2024-01-30T03:17:15;8.88;;;4.60;;
27746;SDS011;15138;51.012;4.692;2024-01-30T03:19:44;9.15;;;5.13;;
27746;SDS011;15138;51.012;4.692;2024-01-30T03:22:12;7.25;;;4.40;;
27746;SDS011;15138;51.012;4.692;2024-01-30T03:24:40;8.43;;;4.80;;
27746;SDS011;15138;51.012;4.692;2024-01-30T03:27:08;6.85;;;4.25;;
27746;SDS011;15138;51.012;4.692;2024-01-30T03:29:37;9.52;;;4.25;;
27746;SDS011;15138;51.012;4.692;2024-01-30T03:32:07;9.93;;;4.38;;
27746;SDS011;15138;51.012;4.692;2024-01-30T03:34:35;7.53;;;4.60;;
27746;SDS011;15138;51.012;4.692;2024-01-30T03:37:03;11.13;;;5.22;;
27746;SDS011;15138;51.012;4.692;2024-01-30T03:39:31;7.65;;;4.70;;
27746;SDS011;15138;51.012;4.692;2024-01-30T03:41:59;10.07;;;4.30;;
27746;SDS011;15138;51.012;4.692;2024-01-30T03:44:28;8.50;;;4.63;;
27746;SDS011;15138;51.012;4.692;2024-01-30T03:46:56;10.90;;;4.85;;
27746;SDS011;15138;51.012;4.692;2024-01-30T03:49:25;8.65;;;4.90;;
27746;SDS011;15138;51.012;4.692;2024-01-30T03:51:53;9.15;;;4.97;;
27746;SDS011;15138;51.012;4.692;2024-01-30T03:54:22;8.18;;;4.55;;
27746;SDS011;15138;51.012;4.692;2024-01-30T03:56:50;9.00;;;4.47;;
27746;SDS011;15138;51.012;4.692;2024-01-30T03:59:18;7.82;;;4.30;;
27746;SDS011;15138;51.012;4.692;2024-01-30T04:01:50;8.15;;;4.45;;
27746;SDS011;15138;51.012;4.692;2024-01-30T04:04:19;9.30;;;4.40;;
27746;SDS011;15138;51.012;4.692;2024-01-30T04:06:49;6.80;;;3.97;;
27746;SDS011;15138;51.012;4.692;2024-01-30T04:09:17;14.77;;;5.03;;
27746;SDS011;15138;51.012;4.692;2024-01-30T04:11:45;10.50;;;4.45;;
27746;SDS011;15138;51.012;4.692;2024-01-30T04:14:13;9.98;;;4.68;;
27746;SDS011;15138;51.012;4.692;2024-01-30T04:16:41;11.23;;;5.10;;
27746;SDS011;15138;51.012;4.692;2024-01-30T04:19:10;8.88;;;4.78;;
27746;SDS011;15138;51.012;4.692;2024-01-30T04:21:38;7.63;;;4.28;;
27746;SDS011;15138;51.012;4.692;2024-01-30T04:24:07;6.80;;;4.10;;
27746;SDS011;15138;51.012;4.692;2024-01-30T04:26:36;9.10;;;4.50;;
27746;SDS011;15138;51.012;4.692;2024-01-30T04:29:04;8.75;;;4.13;;
27746;SDS011;15138;51.012;4.692;2024-01-30T04:31:33;8.38;;;4.82;;
27746;SDS011;15138;51.012;4.692;2024-01-30T04:34:03;10.02;;;4.60;;
27746;SDS011;15138;51.012;4.692;2024-01-30T04:36:31;7.70;;;4.40;;
27746;SDS011;15138;51.012;4.692;2024-01-30T04:38:59;9.23;;;4.63;;
27746;SDS011;15138;51.012;4.692;2024-01-30T04:41:29;9.05;;;4.30;;
27746;SDS011;15138;51.012;4.692;2024-01-30T04:43:58;7.47;;;4.25;;
27746;SDS011;15138;51.012;4.692;2024-01-30T04:46:26;7.22;;;4.43;;
27746;SDS011;15138;51.012;4.692;2024-01-30T04:48:55;10.30;;;4.80;;
27746;SDS011;15138;51.012;4.692;2024-01-30T04:51:23;10.63;;;4.38;;
27746;SDS011;15138;51.012;4.692;2024-01-30T04:53:51;5.93;;;3.80;;
27746;SDS011;15138;51.012;4.692;2024-01-30T04:56:19;7.75;;;4.63;;
27746;SDS011;15138;51.012;4.692;2024-01-30T04:58:48;9.43;;;4.55;;
27746;SDS011;15138;51.012;4.692;2024-01-30T05:01:17;8.07;;;4.50;;
27746;SDS011;15138;51.012;4.692;2024-01-30T05:03:45;9.70;;;4.53;;
27746;SDS011;15138;51.012;4.692;2024-01-30T05:06:23;11.32;;;4.28;;
27746;SDS011;15138;51.012;4.692;2024-01-30T05:08:52;9.50;;;5.13;;
27746;SDS011;15138;51.012;4.692;2024-01-30T05:11:20;10.68;;;4.95;;
27746;SDS011;15138;51.012;4.692;2024-01-30T05:13:49;7.43;;;3.90;;
27746;SDS011;15138;51.012;4.692;2024-01-30T05:16:17;9.48;;;4.45;;
27746;SDS011;15138;51.012;4.692;2024-01-30T05:18:46;11.57;;;4.30;;
27746;SDS011;15138;51.012;4.692;2024-01-30T05:21:14;11.10;;;4.47;;
27746;SDS011;15138;51.012;4.692;2024-01-30T05:23:42;12.45;;;4.28;;
27746;SDS011;15138;51.012;4.692;2024-01-30T05:26:10;13.85;;;5.40;;
27746;SDS011;15138;51.012;4.692;2024-01-30T05:28:38;9.80;;;5.18;;
27746;SDS011;15138;51.012;4.692;2024-01-30T05:31:08;12.70;;;5.03;;
27746;SDS011;15138;51.012;4.692;2024-01-30T05:33:36;11.05;;;4.68;;
27746;SDS011;15138;51.012;4.692;2024-01-30T05:36:04;9.18;;;5.05;;
27746;SDS011;15138;51.012;4.692;2024-01-30T05:38:33;8.55;;;4.55;;
27746;SDS011;15138;51.012;4.692;2024-01-30T05:41:04;10.35;;;4.63;;
27746;SDS011;15138;51.012;4.692;2024-01-30T05:43:32;11.15;;;5.00;;
27746;SDS011;15138;51.012;4.692;2024-01-30T05:46:00;10.70;;;5.00;;
27746;SDS011;15138;51.012;4.692;2024-01-30T05:48:30;9.10;;;4.72;;
27746;SDS011;15138;51.012;4.692;2024-01-30T05:50:58;10.48;;;5.35;;
27746;SDS011;15138;51.012;4.692;2024-01-30T05:53:27;9.30;;;5.03;;
27746;SDS011;15138;51.012;4.692;2024-01-30T05:55:55;12.65;;;5.10;;
27746;SDS011;15138;51.012;4.692;2024-01-30T05:58:23;10.15;;;4.88;;
27746;SDS011;15138;51.012;4.692;2024-01-30T06:00:50;11.02;;;4.50;;
27746;SDS011;15138;51.012;4.692;2024-01-30T06:03:19;8.93;;;5.00;;
27746;SDS011;15138;51.012;4.692;2024-01-30T06:05:48;10.68;;;5.00;;
27746;SDS011;15138;51.012;4.692;2024-01-30T06:08:17;11.20;;;5.03;;
27746;SDS011;15138;51.012;4.692;2024-01-30T06:10:45;10.48;;;5.18;;
27746;SDS011;15138;51.012;4.692;2024-01-30T06:13:14;10.45;;;5.30;;
27746;SDS011;15138;51.012;4.692;2024-01-30T06:15:42;13.23;;;5.90;;
27746;SDS011;15138;51.012;4.692;2024-01-30T06:18:11;9.93;;;4.72;;
27746;SDS011;15138;51.012;4.692;2024-01-30T06:20:39;14.00;;;5.47;;
27746;SDS011;15138;51.012;4.692;2024-01-30T06:23:09;10.52;;;5.30;;
27746;SDS011;15138;51.012;4.692;2024-01-30T06:25:39;8.68;;;3.88;;
27746;SDS011;15138;51.012;4.692;2024-01-30T06:28:07;9.50;;;4.47;;
27746;SDS011;15138;51.012;4.692;2024-01-30T06:30:35;11.55;;;4.60;;
27746;SDS011;15138;51.012;4.692;2024-01-30T06:33:03;8.48;;;4.80;;
27746;SDS011;15138;51.012;4.692;2024-01-30T06:35:32;9.38;;;4.82;;
27746;SDS011;15138;51.012;4.692;2024-01-30T06:38:02;11.43;;;4.65;;
27746;SDS011;15138;51.012;4.692;2024-01-30T06:40:32;15.27;;;5.15;;
27746;SDS011;15138;51.012;4.692;2024-01-30T06:43:00;10.20;;;5.50;;
27746;SDS011;15138;51.012;4.692;2024-01-30T06:45:28;9.23;;;5.07;;
27746;SDS011;15138;51.012;4.692;2024-01-30T06:47:57;8.40;;;5.00;;
27746;SDS011;15138;51.012;4.692;2024-01-30T06:50:25;9.25;;;4.88;;
27746;SDS011;15138;51.012;4.692;2024-01-30T06:52:54;10.05;;;5.53;;
27746;SDS011;15138;51.012;4.692;2024-01-30T06:55:22;12.27;;;5.80;;
27746;SDS011;15138;51.012;4.692;2024-01-30T06:57:52;10.80;;;5.05;;
27746;SDS011;15138;51.012;4.692;2024-01-30T07:00:20;10.88;;;5.22;;
27746;SDS011;15138;51.012;4.692;2024-01-30T07:02:48;8.35;;;4.57;;
27746;SDS011;15138;51.012;4.692;2024-01-30T07:05:17;10.50;;;5.53;;
27746;SDS011;15138;51.012;4.692;2024-01-30T07:07:45;11.32;;;5.78;;
27746;SDS011;15138;51.012;4.692;2024-01-30T07:10:13;7.00;;;4.45;;
27746;SDS011;15138;51.012;4.692;2024-01-30T07:12:42;10.27;;;4.75;;
27746;SDS011;15138;51.012;4.692;2024-01-30T07:15:11;13.07;;;5.28;;
27746;SDS011;15138;51.012;4.692;2024-01-30T07:17:42;8.18;;;5.20;;
27746;SDS011;15138;51.012;4.692;2024-01-30T07:20:11;8.93;;;5.18;;
27746;SDS011;15138;51.012;4.692;2024-01-30T07:22:43;10.90;;;5.07;;
27746;SDS011;15138;51.012;4.692;2024-01-30T07:25:11;9.90;;;4.68;;
27746;SDS011;15138;51.012;4.692;2024-01-30T07:27:40;9.95;;;5.25;;
27746;SDS011;15138;51.012;4.692;2024-01-30T07:30:08;7.82;;;4.43;;
27746;SDS011;15138;51.012;4.692;2024-01-30T07:32:38;11.20;;;4.72;;
27746;SDS011;15138;51.012;4.692;2024-01-30T07:35:06;10.15;;;5.70;;
27746;SDS011;15138;51.012;4.692;2024-01-30T07:37:35;7.78;;;4.72;;
27746;SDS011;15138;51.012;4.692;2024-01-30T07:40:04;10.90;;;5.07;;
27746;SDS011;15138;51.012;4.692;2024-01-30T07:42:33;10.85;;;5.38;;
27746;SDS011;15138;51.012;4.692;2024-01-30T07:45:02;10.38;;;4.97;;
27746;SDS011;15138;51.012;4.692;2024-01-30T07:47:30;10.45;;;5.32;;
27746;SDS011;15138;51.012;4.692;2024-01-30T07:50:00;7.95;;;5.22;;
27746;SDS011;15138;51.012;4.692;2024-01-30T07:52:28;8.40;;;4.78;;
27746;SDS011;15138;51.012;4.692;2024-01-30T07:54:57;10.82;;;6.07;;
27746;SDS011;15138;51.012;4.692;2024-01-30T07:57:25;11.23;;;5.43;;
27746;SDS011;15138;51.012;4.692;2024-01-30T07:59:53;10.65;;;5.38;;
27746;SDS011;15138;51.012;4.692;2024-01-30T08:02:21;10.77;;;5.13;;
27746;SDS011;15138;51.012;4.692;2024-01-30T08:04:50;8.70;;;4.95;;
27746;SDS011;15138;51.012;4.692;2024-01-30T08:07:20;8.90;;;5.32;;
27746;SDS011;15138;51.012;4.692;2024-01-30T08:09:48;8.43;;;5.05;;
27746;SDS011;15138;51.012;4.692;2024-01-30T08:12:17;9.80;;;4.90;;
27746;SDS011;15138;51.012;4.692;2024-01-30T08:14:45;11.25;;;6.20;;
27746;SDS011;15138;51.012;4.692;2024-01-30T08:17:13;13.75;;;5.72;;
27746;SDS011;15138;51.012;4.692;2024-01-30T08:19:41;11.80;;;6.05;;
27746;SDS011;15138;51.012;4.692;2024-01-30T08:22:11;7.63;;;5.25;;
27746;SDS011;15138;51.012;4.692;2024-01-30T08:24:42;10.80;;;5.40;;
27746;SDS011;15138;51.012;4.692;2024-01-30T08:27:10;15.48;;;6.20;;
27746;SDS011;15138;51.012;4.692;2024-01-30T08:29:38;13.32;;;5.80;;
27746;SDS011;15138;51.012;4.692;2024-01-30T08:32:06;12.63;;;5.63;;
27746;SDS011;15138;51.012;4.692;2024-01-30T08:34:35;13.75;;;5.70;;
27746;SDS011;15138;51.012;4.692;2024-01-30T08:37:03;9.88;;;5.53;;
27746;SDS011;15138;51.012;4.692;2024-01-30T08:39:31;9.85;;;4.93;;
27746;SDS011;15138;51.012;4.692;2024-01-30T08:42:01;13.25;;;5.53;;
27746;SDS011;15138;51.012;4.692;2024-01-30T08:44:29;14.40;;;5.75;;
27746;SDS011;15138;51.012;4.692;2024-01-30T08:46:58;9.75;;;4.97;;
27746;SDS011;15138;51.012;4.692;2024-01-30T08:49:26;14.25;;;5.15;;
27746;SDS011;15138;51.012;4.692;2024-01-30T08:51:54;10.70;;;5.25;;
27746;SDS011;15138;51.012;4.692;2024-01-30T08:54:24;15.57;;;6.00;;
27746;SDS011;15138;51.012;4.692;2024-01-30T08:56:52;9.65;;;5.43;;
27746;SDS011;15138;51.012;4.692;2024-01-30T08:59:24;9.73;;;5.53;;
27746;SDS011;15138;51.012;4.692;2024-01-30T09:01:52;11.27;;;5.53;;
27746;SDS011;15138;51.012;4.692;2024-01-30T09:04:36;12.50;;;5.97;;
27746;SDS011;15138;51.012;4.692;2024-01-30T09:07:05;11.70;;;5.75;;
27746;SDS011;15138;51.012;4.692;2024-01-30T09:09:37;10.23;;;5.35;;
27746;SDS011;15138;51.012;4.692;2024-01-30T09:12:07;9.65;;;4.95;;
27746;SDS011;15138;51.012;4.692;2024-01-30T09:14:39;13.27;;;5.75;;
27746;SDS011;15138;51.012;4.692;2024-01-30T09:17:08;10.73;;;5.53;;
27746;SDS011;15138;51.012;4.692;2024-01-30T09:19:37;10.52;;;5.53;;
27746;SDS011;15138;51.012;4.692;2024-01-30T09:22:05;11.27;;;5.78;;
27746;SDS011;15138;51.012;4.692;2024-01-30T09:24:32;10.68;;;5.35;;
27746;SDS011;15138;51.012;4.692;2024-01-30T09:27:01;14.07;;;6.85;;
27746;SDS011;15138;51.012;4.692;2024-01-30T09:29:29;13.98;;;6.07;;
27746;SDS011;15138;51.012;4.692;2024-01-30T09:31:58;11.95;;;5.80;;
27746;SDS011;15138;51.012;4.692;2024-01-30T09:34:26;11.27;;;5.43;;
27746;SDS011;15138;51.012;4.692;2024-01-30T09:36:55;10.00;;;5.80;;
27746;SDS011;15138;51.012;4.692;2024-01-30T09:39:23;13.43;;;5.80;;
27746;SDS011;15138;51.012;4.692;2024-01-30T09:41:53;22.08;;;6.47;;
27746;SDS011;15138;51.012;4.692;2024-01-30T09:44:24;14.23;;;6.10;;
27746;SDS011;15138;51.012;4.692;2024-01-30T09:46:56;15.35;;;7.07;;
27746;SDS011;15138;51.012;4.692;2024-01-30T09:49:31;18.02;;;7.28;;
27746;SDS011;15138;51.012;4.692;2024-01-30T09:52:00;19.65;;;7.00;;
27746;SDS011;15138;51.012;4.692;2024-01-30T09:54:29;19.63;;;7.28;;
27746;SDS011;15138;51.012;4.692;2024-01-30T09:57:02;17.52;;;7.18;;
27746;SDS011;15138;51.012;4.692;2024-01-30T09:59:30;15.43;;;6.68;;
27746;SDS011;15138;51.012;4.692;2024-01-30T10:01:58;17.40;;;6.15;;
27746;SDS011;15138;51.012;4.692;2024-01-30T10:04:27;17.17;;;7.50;;
27746;SDS011;15138;51.012;4.692;2024-01-30T10:06:57;16.02;;;6.57;;
27746;SDS011;15138;51.012;4.692;2024-01-30T10:09:28;14.75;;;7.25;;
27746;SDS011;15138;51.012;4.692;2024-01-30T10:11:59;20.48;;;6.00;;
27746;SDS011;15138;51.012;4.692;2024-01-30T10:14:27;12.15;;;6.85;;
27746;SDS011;15138;51.012;4.692;2024-01-30T10:16:55;17.98;;;8.30;;
27746;SDS011;15138;51.012;4.692;2024-01-30T10:19:32;19.42;;;8.93;;
27746;SDS011;15138;51.012;4.692;2024-01-30T10:22:01;18.45;;;8.50;;
27746;SDS011;15138;51.012;4.692;2024-01-30T10:24:30;15.02;;;7.13;;
27746;SDS011;15138;51.012;4.692;2024-01-30T10:26:59;18.15;;;9.02;;
27746;SDS011;15138;51.012;4.692;2024-01-30T10:29:27;14.25;;;6.45;;
27746;SDS011;15138;51.012;4.692;2024-01-30T10:31:59;14.98;;;8.13;;
27746;SDS011;15138;51.012;4.692;2024-01-30T10:34:28;14.55;;;5.95;;
27746;SDS011;15138;51.012;4.692;2024-01-30T10:36:59;21.42;;;8.80;;
27746;SDS011;15138;51.012;4.692;2024-01-30T10:39:30;17.17;;;8.98;;
27746;SDS011;15138;51.012;4.692;2024-01-30T10:41:59;15.45;;;7.82;;
27746;SDS011;15138;51.012;4.692;2024-01-30T10:44:34;17.15;;;8.82;;
27746;SDS011;15138;51.012;4.692;2024-01-30T10:47:07;22.50;;;10.10;;
27746;SDS011;15138;51.012;4.692;2024-01-30T10:49:40;23.52;;;11.68;;
27746;SDS011;15138;51.012;4.692;2024-01-30T10:52:10;17.95;;;9.48;;
27746;SDS011;15138;51.012;4.692;2024-01-30T10:54:40;23.58;;;10.20;;
27746;SDS011;15138;51.012;4.692;2024-01-30T10:57:12;17.75;;;9.35;;
27746;SDS011;15138;51.012;4.692;2024-01-30T10:59:40;15.48;;;6.90;;
27746;SDS011;15138;51.012;4.692;2024-01-30T11:02:09;20.55;;;9.50;;
27746;SDS011;15138;51.012;4.692;2024-01-30T11:04:40;17.25;;;8.45;;
27746;SDS011;15138;51.012;4.692;2024-01-30T11:07:15;16.00;;;8.55;;
27746;SDS011;15138;51.012;4.692;2024-01-30T11:09:51;23.08;;;9.15;;
27746;SDS011;15138;51.012;4.692;2024-01-30T11:12:23;6.03;;;3.10;;
27746;SDS011;15138;51.012;4.692;2024-01-30T11:15:01;20.77;;;9.32;;
27746;SDS011;15138;51.012;4.692;2024-01-30T11:17:40;19.80;;;6.88;;
27746;SDS011;15138;51.012;4.692;2024-01-30T11:20:09;14.55;;;8.00;;
27746;SDS011;15138;51.012;4.692;2024-01-30T11:22:40;8.45;;;5.03;;
27746;SDS011;15138;51.012;4.692;2024-01-30T11:25:14;9.00;;;4.05;;
27746;SDS011;15138;51.012;4.692;2024-01-30T11:27:44;10.88;;;4.22;;
27746;SDS011;15138;51.012;4.692;2024-01-30T11:30:21;4.18;;;2.40;;
27746;SDS011;15138;51.012;4.692;2024-01-30T11:33:00;9.02;;;2.95;;
27746;SDS011;15138;51.012;4.692;2024-01-30T11:35:32;4.38;;;1.88;;
27746;SDS011;15138;51.012;4.692;2024-01-30T11:38:01;6.93;;;2.42;;
27746;SDS011;15138;51.012;4.692;2024-01-30T11:40:32;8.13;;;2.13;;
27746;SDS011;15138;51.012;4.692;2024-01-30T11:43:03;5.05;;;1.55;;
27746;SDS011;15138;51.012;4.692;2024-01-30T11:45:32;5.57;;;1.75;;
27746;SDS011;15138;51.012;4.692;2024-01-30T11:48:03;2.03;;;1.55;;
27746;SDS011;15138;51.012;4.692;2024-01-30T11:50:32;10.50;;;1.80;;
27746;SDS011;15138;51.012;4.692;2024-01-30T11:53:01;9.52;;;2.10;;
27746;SDS011;15138;51.012;4.692;2024-01-30T11:55:31;5.05;;;1.60;;
27746;SDS011;15138;51.012;4.692;2024-01-30T11:58:01;3.63;;;1.35;;
27746;SDS011;15138;51.012;4.692;2024-01-30T12:00:30;4.18;;;1.17;;
27746;SDS011;15138;51.012;4.692;2024-01-30T12:03:00;2.33;;;1.08;;
27746;SDS011;15138;51.012;4.692;2024-01-30T12:05:30;2.40;;;0.85;;
27746;SDS011;15138;51.012;4.692;2024-01-30T12:07:58;1.95;;;0.93;;
27746;SDS011;15138;51.012;4.692;2024-01-30T12:10:28;5.10;;;0.80;;
27746;SDS011;15138;51.012;4.692;2024-01-30T12:12:58;2.10;;;0.70;;
27746;SDS011;15138;51.012;4.692;2024-01-30T12:15:28;2.05;;;0.80;;
27746;SDS011;15138;51.012;4.692;2024-01-30T12:18:03;4.22;;;0.93;;
27746;SDS011;15138;51.012;4.692;2024-01-30T12:20:32;2.90;;;1.23;;
27746;SDS011;15138;51.012;4.692;2024-01-30T12:23:01;1.65;;;0.68;;
27746;SDS011;15138;51.012;4.692;2024-01-30T12:25:29;2.88;;;0.60;;
27746;SDS011;15138;51.012;4.692;2024-01-30T12:28:00;2.28;;;0.85;;
27746;SDS011;15138;51.012;4.692;2024-01-30T12:30:29;3.85;;;1.05;;
27746;SDS011;15138;51.012;4.692;2024-01-30T12:32:57;0.80;;;0.60;;
27746;SDS011;15138;51.012;4.692;2024-01-30T12:35:25;1.48;;;0.80;;
27746;SDS011;15138;51.012;4.692;2024-01-30T12:37:58;3.25;;;0.75;;
27746;SDS011;15138;51.012;4.692;2024-01-30T12:40:26;2.15;;;0.70;;
27746;SDS011;15138;51.012;4.692;2024-01-30T12:42:55;2.63;;;1.00;;
27746;SDS011;15138;51.012;4.692;2024-01-30T12:45:25;3.20;;;1.00;;
27746;SDS011;15138;51.012;4.692;2024-01-30T12:47:53;3.38;;;1.00;;
27746;SDS011;15138;51.012;4.692;2024-01-30T12:50:22;3.65;;;1.00;;
27746;SDS011;15138;51.012;4.692;2024-01-30T12:52:50;1.95;;;0.80;;
27746;SDS011;15138;51.012;4.692;2024-01-30T12:55:19;1.45;;;0.73;;
27746;SDS011;15138;51.012;4.692;2024-01-30T12:57:47;1.73;;;0.73;;
27746;SDS011;15138;51.012;4.692;2024-01-30T13:00:15;3.55;;;0.80;;
27746;SDS011;15138;51.012;4.692;2024-01-30T13:02:45;3.38;;;0.95;;
27746;SDS011;15138;51.012;4.692;2024-01-30T13:05:15;2.10;;;0.68;;
27746;SDS011;15138;51.012;4.692;2024-01-30T13:07:44;4.18;;;0.85;;
27746;SDS011;15138;51.012;4.692;2024-01-30T13:10:12;3.10;;;1.27;;
27746;SDS011;15138;51.012;4.692;2024-01-30T13:12:41;4.72;;;0.70;;
27746;SDS011;15138;51.012;4.692;2024-01-30T13:15:09;2.63;;;0.90;;
27746;SDS011;15138;51.012;4.692;2024-01-30T13:17:37;1.63;;;0.47;;
27746;SDS011;15138;51.012;4.692;2024-01-30T13:20:08;2.67;;;0.73;;
27746;SDS011;15138;51.012;4.692;2024-01-30T13:22:38;5.53;;;0.88;;
27746;SDS011;15138;51.012;4.692;2024-01-30T13:25:06;3.50;;;1.00;;
27746;SDS011;15138;51.012;4.692;2024-01-30T13:27:35;3.58;;;0.82;;
27746;SDS011;15138;51.012;4.692;2024-01-30T13:30:04;2.72;;;0.95;;
27746;SDS011;15138;51.012;4.692;2024-01-30T13:32:33;2.72;;;0.80;;
27746;SDS011;15138;51.012;4.692;2024-01-30T13:35:01;2.83;;;0.77;;
27746;SDS011;15138;51.012;4.692;2024-01-30T13:37:31;3.15;;;0.98;;
27746;SDS011;15138;51.012;4.692;2024-01-30T13:39:59;1.95;;;0.70;;
27746;SDS011;15138;51.012;4.692;2024-01-30T13:42:32;4.25;;;0.80;;
27746;SDS011;15138;51.012;4.692;2024-01-30T13:45:00;2.30;;;0.73;;
27746;SDS011;15138;51.012;4.692;2024-01-30T13:47:29;1.60;;;0.77;;
27746;SDS011;15138;51.012;4.692;2024-01-30T13:49:57;4.05;;;1.00;;
27746;SDS011;15138;51.012;4.692;2024-01-30T13:52:26;2.05;;;0.70;;
27746;SDS011;15138;51.012;4.692;2024-01-30T13:55:05;2.90;;;1.00;;
27746;SDS011;15138;51.012;4.692;2024-01-30T13:57:33;4.78;;;1.05;;
27746;SDS011;15138;51.012;4.692;2024-01-30T14:00:02;1.40;;;0.80;;
27746;SDS011;15138;51.012;4.692;2024-01-30T14:02:33;2.97;;;0.90;;
27746;SDS011;15138;51.012;4.692;2024-01-30T14:05:01;3.75;;;0.55;;
27746;SDS011;15138;51.012;4.692;2024-01-30T14:07:31;5.68;;;1.08;;
27746;SDS011;15138;51.012;4.692;2024-01-30T14:10:00;4.43;;;0.93;;
27746;SDS011;15138;51.012;4.692;2024-01-30T14:12:33;4.03;;;0.90;;
27746;SDS011;15138;51.012;4.692;2024-01-30T14:15:01;2.28;;;0.82;;
27746;SDS011;15138;51.012;4.692;2024-01-30T14:17:44;3.50;;;1.00;;
27746;SDS011;15138;51.012;4.692;2024-01-30T14:20:15;5.32;;;1.10;;
27746;SDS011;15138;51.012;4.692;2024-01-30T14:22:44;3.97;;;1.13;;
27746;SDS011;15138;51.012;4.692;2024-01-30T14:25:12;4.60;;;1.15;;
27746;SDS011;15138;51.012;4.692;2024-01-30T14:27:43;5.72;;;1.10;;
27746;SDS011;15138;51.012;4.692;2024-01-30T14:30:11;5.03;;;1.13;;
27746;SDS011;15138;51.012;4.692;2024-01-30T14:32:40;1.75;;;0.90;;
27746;SDS011;15138;51.012;4.692;2024-01-30T14:35:11;4.50;;;1.10;;
27746;SDS011;15138;51.012;4.692;2024-01-30T14:37:39;1.45;;;0.88;;
27746;SDS011;15138;51.012;4.692;2024-01-30T14:40:08;4.28;;;0.98;;
27746;SDS011;15138;51.012;4.692;2024-01-30T14:42:37;2.58;;;1.10;;
27746;SDS011;15138;51.012;4.692;2024-01-30T14:45:07;4.07;;;1.05;;
27746;SDS011;15138;51.012;4.692;2024-01-30T14:47:36;0.80;;;0.63;;
27746;SDS011;15138;51.012;4.692;2024-01-30T14:50:04;3.08;;;1.13;;
27746;SDS011;15138;51.012;4.692;2024-01-30T14:52:35;4.13;;;1.20;;